Time;durP1;ratioP1;P1;durP2;ratioP2;P2;SDS_P1;SDS_P2;PMS_P1;PMS_P2;Temp;Humidity;BMP_temperature;BMP_pressure;BME280_temperature;BME280_humidity;BME280_pressure;Samples;Min_cycle;Max_cycle;Signal;HPM_P1;HPM_P2
2023/05/05 00:00:53;;;;;;;11.10;6.07;;;;;;;14.13;100.00;101614.75;5134256;27;20112;-76
2023/05/05 00:03:23;;;;;;;9.15;5.55;;;;;;;14.06;100.00;101603.78;5134287;27;20412;-77
2023/05/05 00:05:49;;;;;;;10.73;4.88;;;;;;;13.99;100.00;101583.06;5133230;27;20031;-77
2023/05/05 00:08:15;;;;;;;10.20;4.65;;;;;;;13.93;100.00;101571.97;5133700;27;20091;-76
2023/05/05 00:10:41;;;;;;;8.13;4.10;;;;;;;13.90;100.00;101556.19;5132867;27;20478;-76
2023/05/05 00:13:07;;;;;;;11.10;3.90;;;;;;;13.84;100.00;101551.44;5132719;27;20150;-77
2023/05/05 00:15:32;;;;;;;8.02;3.10;;;;;;;13.81;100.00;101545.50;5133706;27;20027;-77
2023/05/05 00:17:58;;;;;;;4.65;3.13;;;;;;;13.79;100.00;101532.28;5134145;27;20034;-76
2023/05/05 00:20:23;;;;;;;6.95;3.00;;;;;;;13.75;100.00;101523.72;5132624;27;20137;-76
2023/05/05 00:22:49;;;;;;;7.53;2.60;;;;;;;13.75;100.00;101522.88;5133930;27;20118;-77
2023/05/05 00:25:14;;;;;;;4.20;2.03;;;;;;;13.76;100.00;101524.53;5134039;27;20032;-76
2023/05/05 00:27:39;;;;;;;3.88;1.65;;;;;;;13.84;100.00;101503.28;5134388;27;20166;-77
2023/05/05 00:30:05;;;;;;;7.00;1.65;;;;;;;13.87;100.00;101494.97;5133843;27;20422;-77
2023/05/05 00:32:31;;;;;;;7.10;1.60;;;;;;;13.95;100.00;101501.44;5133815;27;20061;-77
2023/05/05 00:34:56;;;;;;;6.65;2.13;;;;;;;13.96;100.00;101489.72;5134111;27;20046;-77
2023/05/05 00:37:22;;;;;;;4.72;1.95;;;;;;;13.94;100.00;101489.88;5132533;27;20038;-76
2023/05/05 00:39:47;;;;;;;8.05;2.13;;;;;;;13.91;100.00;101490.16;5132173;27;20099;-76
2023/05/05 00:42:12;;;;;;;9.40;1.75;;;;;;;13.86;100.00;101503.13;5132969;27;20424;-76
2023/05/05 00:44:40;;;;;;;5.15;1.80;;;;;;;13.83;100.00;101498.91;5133892;27;20023;-76
2023/05/05 00:47:09;;;;;;;5.15;1.75;;;;;;;13.84;100.00;101500.59;5134426;27;20039;-77
2023/05/05 00:49:36;;;;;;;4.10;1.60;;;;;;;13.83;100.00;101506.09;5134007;27;20473;-77
2023/05/05 00:52:03;;;;;;;4.38;1.58;;;;;;;13.76;100.00;101508.50;5133593;27;20120;-77
2023/05/05 00:54:29;;;;;;;5.10;1.40;;;;;;;13.73;100.00;101517.66;5132535;27;20096;-77
2023/05/05 00:56:54;;;;;;;2.65;1.30;;;;;;;13.70;100.00;101523.31;5134055;27;20035;-77
2023/05/05 00:59:20;;;;;;;3.38;1.65;;;;;;;13.65;100.00;101527.38;5133480;27;20055;-78
2023/05/05 01:01:45;;;;;;;3.50;1.65;;;;;;;13.58;100.00;101529.78;5115147;27;20047;-77
2023/05/05 01:04:11;;;;;;;4.35;1.55;;;;;;;13.53;100.00;101534.72;5131994;27;20042;-77
2023/05/05 01:07:02;;;;;;;2.90;1.60;;;;;;;13.46;100.00;101534.41;5133794;27;20040;-77
2023/05/05 01:09:48;;;;;;;4.80;1.85;;;;;;;13.37;100.00;101530.75;5133624;27;20023;-76
2023/05/05 01:12:32;;;;;;;4.35;1.58;;;;;;;13.29;100.00;101525.25;5133018;27;20076;-77
2023/05/05 01:15:05;;;;;;;3.40;1.80;;;;;;;13.21;100.00;101541.13;5133379;27;20072;-77
2023/05/05 01:17:43;;;;;;;4.57;1.48;;;;;;;13.08;100.00;101543.22;5133340;27;20023;-77
2023/05/05 01:20:20;;;;;;;2.20;1.25;;;;;;;12.95;100.00;101547.00;5132744;27;20035;-77
2023/05/05 01:22:51;;;;;;;3.40;1.40;;;;;;;12.85;100.00;101552.34;5132693;27;20325;-77
2023/05/05 01:25:54;;;;;;;7.43;1.63;;;;;;;12.80;100.00;101554.56;5132879;27;20110;-78
2023/05/05 01:28:41;;;;;;;6.00;1.70;;;;;;;12.78;100.00;101551.19;5132661;27;20079;-77
2023/05/05 01:31:30;;;;;;;2.55;1.65;;;;;;;12.73;100.00;101561.41;5132804;27;20049;-78
2023/05/05 01:34:02;;;;;;;4.10;1.90;;;;;;;12.68;100.00;101556.47;5133336;27;20111;-78
2023/05/05 01:36:35;;;;;;;5.45;1.75;;;;;;;12.63;100.00;101557.84;5131181;27;20035;-77
2023/05/05 01:39:03;;;;;;;4.57;1.75;;;;;;;12.58;100.00;101568.09;5132306;27;20027;-77
2023/05/05 01:41:39;;;;;;;4.22;1.95;;;;;;;12.50;100.00;101561.63;5132266;27;20074;-77
2023/05/05 01:44:07;;;;;;;9.07;2.30;;;;;;;12.46;100.00;101562.00;5130858;27;20355;-78
2023/05/05 01:46:34;;;;;;;12.93;2.25;;;;;;;12.46;100.00;101572.69;5132232;27;20103;-76
2023/05/05 01:49:00;;;;;;;5.80;1.98;;;;;;;12.45;100.00;101565.66;5132210;27;20039;-76
2023/05/05 01:51:26;;;;;;;5.10;1.90;;;;;;;12.43;100.00;101573.78;5131299;27;20116;-77
2023/05/05 01:53:56;;;;;;;7.38;2.17;;;;;;;12.41;100.00;101575.75;5113682;27;20043;-77
2023/05/05 01:56:23;;;;;;;5.78;2.30;;;;;;;12.36;100.00;101572.66;5131886;27;20130;-77
2023/05/05 01:58:50;;;;;;;7.07;2.00;;;;;;;12.29;100.00;101567.00;5132023;27;20046;-77
2023/05/05 02:01:19;;;;;;;6.68;1.98;;;;;;;12.20;100.00;101565.13;5131598;27;20140;-76
2023/05/05 02:03:46;;;;;;;6.13;1.95;;;;;;;12.10;100.00;101575.72;5131598;27;20019;-76
2023/05/05 02:06:13;;;;;;;5.63;1.95;;;;;;;11.98;100.00;101574.94;5131859;27;20152;-76
2023/05/05 02:08:40;;;;;;;6.88;2.05;;;;;;;11.90;100.00;101574.75;5131425;27;20043;-76
2023/05/05 02:11:09;;;;;;;7.53;2.13;;;;;;;11.79;100.00;101578.31;5131268;27;20046;-76
2023/05/05 02:13:35;;;;;;;4.72;2.00;;;;;;;11.68;100.00;101570.34;5131343;27;20045;-78
2023/05/05 02:16:03;;;;;;;7.85;2.28;;;;;;;11.59;100.00;101569.31;5131419;27;20089;-76
2023/05/05 02:18:32;;;;;;;6.13;2.63;;;;;;;11.51;100.00;101574.44;5131033;27;20031;-77
2023/05/05 02:20:57;;;;;;;4.65;2.10;;;;;;;11.42;100.00;101567.19;5131414;27;20031;-77
2023/05/05 02:23:24;;;;;;;6.85;2.47;;;;;;;11.35;100.00;101572.19;5131232;27;20113;-76
2023/05/05 02:25:54;;;;;;;8.80;2.58;;;;;;;11.25;100.00;101580.06;5131661;27;20040;-76
2023/05/05 02:28:29;;;;;;;4.72;2.65;;;;;;;11.18;100.00;101586.91;5131775;27;20074;-77
2023/05/05 02:30:58;;;;;;;6.03;2.58;;;;;;;11.10;100.00;101590.16;5129943;27;20043;-76
2023/05/05 02:33:27;;;;;;;8.95;2.53;;;;;;;11.04;100.00;101593.31;5131656;27;20050;-77
2023/05/05 02:35:55;;;;;;;12.27;2.70;;;;;;;10.98;100.00;101600.97;5130818;27;20447;-77
2023/05/05 02:38:26;;;;;;;8.50;2.78;;;;;;;10.96;100.00;101592.25;5131504;27;20094;-77
2023/05/05 02:40:55;;;;;;;9.05;2.97;;;;;;;10.90;100.00;101594.44;5131827;27;20035;-79
2023/05/05 02:43:23;;;;;;;7.18;3.05;;;;;;;10.86;100.00;101592.97;5131156;27;20136;-78
2023/05/05 02:45:48;;;;;;;8.02;2.70;;;;;;;10.84;100.00;101602.06;5131105;27;20164;-77
2023/05/05 02:48:14;;;;;;;6.82;2.88;;;;;;;10.81;100.00;101602.31;5131231;27;20171;-77
2023/05/05 02:50:39;;;;;;;5.13;2.75;;;;;;;10.77;100.00;101591.91;5130395;27;20458;-78
2023/05/05 02:53:05;;;;;;;12.75;3.47;;;;;;;10.81;100.00;101596.97;5129864;27;20053;-77
2023/05/05 02:55:41;;;;;;;8.48;4.05;;;;;;;10.80;100.00;101593.47;5131245;27;20370;-75
2023/05/05 02:58:12;;;;;;;7.68;3.80;;;;;;;10.77;100.00;101609.69;5131194;27;20027;-78
2023/05/05 03:00:49;;;;;;;10.20;4.00;;;;;;;10.73;100.00;101606.44;5130947;27;20379;-76
2023/05/05 03:03:37;;;;;;;10.02;4.13;;;;;;;10.70;100.00;101609.34;5128586;27;20309;-76
2023/05/05 03:06:12;;;;;;;9.98;4.30;;;;;;;10.67;100.00;101606.91;5131336;27;20042;-78
2023/05/05 03:08:56;;;;;;;8.68;4.22;;;;;;;10.62;100.00;101600.28;5130742;27;20427;-77
2023/05/05 03:11:46;;;;;;;9.80;5.22;;;;;;;10.61;100.00;101610.06;5130764;27;20027;-77
2023/05/05 03:14:17;;;;;;;11.65;5.97;;;;;;;10.58;100.00;101603.19;5131282;27;20038;-77
2023/05/05 03:16:43;;;;;;;20.57;7.43;;;;;;;10.56;100.00;101605.09;5131150;27;20098;-77
2023/05/05 03:19:11;;;;;;;10.07;6.68;;;;;;;10.57;100.00;101595.31;5129644;27;20168;-76
2023/05/05 03:21:37;;;;;;;11.80;7.85;;;;;;;10.57;100.00;101590.81;5129354;27;20038;-77
2023/05/05 03:24:18;;;;;;;10.63;7.55;;;;;;;10.55;100.00;101587.44;5130955;27;20027;-77
2023/05/05 03:26:46;;;;;;;13.70;7.88;;;;;;;10.54;100.00;101590.22;5130702;27;20106;-78
2023/05/05 03:29:12;;;;;;;20.15;10.88;;;;;;;10.53;100.00;101594.69;5130599;27;20027;-79
2023/05/05 03:31:38;;;;;;;14.70;8.95;;;;;;;10.50;100.00;101596.75;5130653;27;20031;-79
2023/05/05 03:34:03;;;;;;;16.40;9.65;;;;;;;10.51;100.00;101604.63;5129332;28;20038;-78
2023/05/05 03:36:29;;;;;;;16.08;9.25;;;;;;;10.50;100.00;101605.56;5130787;27;20122;-79
2023/05/05 03:38:54;;;;;;;18.65;10.00;;;;;;;10.47;100.00;101608.47;5130564;27;20478;-78
2023/05/05 03:41:23;;;;;;;16.23;10.65;;;;;;;10.45;100.00;101610.44;5130247;28;20344;-79
2023/05/05 03:43:50;;;;;;;22.35;10.55;;;;;;;10.41;100.00;101606.31;5131050;27;20046;-78
2023/05/05 03:46:15;;;;;;;21.40;12.45;;;;;;;10.41;100.00;101604.47;5130620;27;20091;-78
2023/05/05 03:48:41;;;;;;;21.55;12.88;;;;;;;10.39;100.00;101605.59;5130403;28;20114;-78
2023/05/05 03:51:06;;;;;;;23.75;13.10;;;;;;;10.37;100.00;101605.66;5130556;27;20051;-77
2023/05/05 03:53:32;;;;;;;31.70;15.25;;;;;;;10.41;100.00;101603.63;5130346;28;20089;-78
2023/05/05 03:55:57;;;;;;;31.80;15.10;;;;;;;10.38;100.00;101614.53;5130118;27;20432;-78
2023/05/05 03:58:23;;;;;;;29.67;13.98;;;;;;;10.32;100.00;101615.81;5131173;28;20032;-78
2023/05/05 04:00:48;;;;;;;22.92;14.77;;;;;;;10.31;100.00;101618.59;5130246;27;20423;-78
2023/05/05 04:03:13;;;;;;;31.98;16.80;;;;;;;10.30;100.00;101622.19;5130574;28;20046;-78
2023/05/05 04:05:39;;;;;;;34.95;17.83;;;;;;;10.29;100.00;101626.69;5130909;27;20027;-77
2023/05/05 04:08:04;;;;;;;33.83;18.80;;;;;;;10.30;100.00;101628.38;5130367;28;20062;-78
2023/05/05 04:10:30;;;;;;;25.90;16.73;;;;;;;10.30;100.00;101635.50;5130349;27;20090;-78
2023/05/05 04:12:55;;;;;;;40.50;19.90;;;;;;;10.29;100.00;101626.69;5130302;28;20131;-77
2023/05/05 04:15:21;;;;;;;37.80;20.70;;;;;;;10.26;100.00;101642.03;5131425;27;20201;-78
2023/05/05 04:17:46;;;;;;;41.70;19.92;;;;;;;10.28;100.00;101643.59;5132434;27;20126;-78
2023/05/05 04:20:12;;;;;;;34.70;19.27;;;;;;;10.26;100.00;101639.38;5134358;27;20034;-79
2023/05/05 04:22:37;;;;;;;37.95;20.65;;;;;;;10.26;100.00;101645.53;5133876;27;20359;-77
2023/05/05 04:25:03;;;;;;;46.22;23.40;;;;;;;10.29;100.00;101653.28;5134103;27;20481;-77
2023/05/05 04:27:29;;;;;;;46.13;22.63;;;;;;;10.31;100.00;101645.19;5134236;27;20385;-78
2023/05/05 04:29:55;;;;;;;52.53;25.23;;;;;;;10.31;100.00;101647.84;5132849;27;20111;-79
2023/05/05 04:32:21;;;;;;;44.35;22.17;;;;;;;10.32;100.00;101647.72;5134838;27;20042;-79
2023/05/05 04:34:46;;;;;;;46.53;24.40;;;;;;;10.31;100.00;101653.16;5133720;27;20027;-79
2023/05/05 04:37:12;;;;;;;43.90;24.10;;;;;;;10.33;100.00;101652.13;5134344;27;20359;-78
2023/05/05 04:39:37;;;;;;;42.95;24.40;;;;;;;10.35;100.00;101659.97;5134305;27;20051;-78
2023/05/05 04:42:03;;;;;;;45.63;24.83;;;;;;;10.33;100.00;101657.44;5134082;27;20046;-80
2023/05/05 04:44:28;;;;;;;52.22;24.92;;;;;;;10.34;100.00;101650.28;5134737;27;20027;-79
2023/05/05 04:46:54;;;;;;;55.85;25.42;;;;;;;10.37;100.00;101653.56;5133831;27;20039;-79
2023/05/05 04:49:19;;;;;;;62.15;28.60;;;;;;;10.41;100.00;101657.69;5134051;27;20431;-79
2023/05/05 04:51:45;;;;;;;50.40;25.77;;;;;;;10.44;100.00;101651.28;5134152;27;20436;-78
2023/05/05 04:54:10;;;;;;;49.67;26.15;;;;;;;10.46;100.00;101652.00;5134328;27;20367;-78
2023/05/05 04:56:36;;;;;;;55.47;25.02;;;;;;;10.50;100.00;101658.78;5134415;27;20069;-78
2023/05/05 04:59:02;;;;;;;50.13;25.73;;;;;;;10.53;100.00;101655.06;5132688;27;20156;-79
2023/05/05 05:01:27;;;;;;;45.88;24.98;;;;;;;10.56;100.00;101654.81;5134034;27;20364;-79
2023/05/05 05:03:52;;;;;;;44.10;24.33;;;;;;;10.64;100.00;101659.53;5133694;27;20049;-79
2023/05/05 05:06:18;;;;;;;46.90;24.90;;;;;;;10.71;100.00;101656.28;5133506;27;20031;-77
2023/05/05 05:08:43;;;;;;;45.22;24.70;;;;;;;10.82;100.00;101657.25;5133909;27;20416;-79
2023/05/05 05:11:08;;;;;;;48.50;25.20;;;;;;;10.94;100.00;101662.47;5132153;27;20110;-79
2023/05/05 05:13:34;;;;;;;54.22;26.08;;;;;;;11.07;100.00;101666.81;5133992;27;20046;-80
2023/05/05 05:16:00;;;;;;;43.88;23.98;;;;;;;11.20;100.00;101677.34;5133676;27;20037;-79
2023/05/05 05:18:25;;;;;;;43.40;22.90;;;;;;;11.34;100.00;101674.41;5133795;27;20023;-79
2023/05/05 05:20:51;;;;;;;44.80;22.25;;;;;;;11.47;100.00;101676.94;5131825;27;20527;-79
2023/05/05 05:23:16;;;;;;;39.22;22.63;;;;;;;11.64;100.00;101680.88;5131918;27;20148;-78
2023/05/05 05:25:42;;;;;;;37.08;21.38;;;;;;;11.82;100.00;101673.19;5132591;27;20459;-79
2023/05/05 05:28:08;;;;;;;33.63;19.88;;;;;;;12.02;100.00;101686.72;5131476;27;20059;-78
2023/05/05 05:30:33;;;;;;;34.90;19.27;;;;;;;12.19;100.00;101677.31;5133498;27;20069;-79
2023/05/05 05:32:58;;;;;;;31.38;19.08;;;;;;;12.34;100.00;101684.00;5132919;27;20043;-78
2023/05/05 05:35:24;;;;;;;35.15;19.85;;;;;;;12.45;100.00;101683.09;5133084;27;20027;-78
2023/05/05 05:37:50;;;;;;;30.10;19.10;;;;;;;12.51;100.00;101685.25;5134279;27;20413;-80
2023/05/05 05:40:16;;;;;;;34.50;16.80;;;;;;;12.49;100.00;101677.34;5133354;27;20038;-78
2023/05/05 05:42:41;;;;;;;30.90;17.52;;;;;;;12.45;100.00;101673.28;5133260;27;20444;-78
2023/05/05 05:45:07;;;;;;;32.75;16.80;;;;;;;12.43;100.00;101672.53;5133692;27;20083;-79
2023/05/05 05:47:33;;;;;;;31.60;16.17;;;;;;;12.44;100.00;101678.75;5133576;27;20073;-78
2023/05/05 05:49:58;;;;;;;29.52;18.13;;;;;;;12.47;100.00;101687.31;5132959;27;20486;-78
2023/05/05 05:52:23;;;;;;;23.25;15.05;;;;;;;12.56;100.00;101695.53;5132430;27;20066;-78
2023/05/05 05:54:49;;;;;;;30.23;15.73;;;;;;;12.65;100.00;101700.94;5132748;27;20448;-80
2023/05/05 05:57:14;;;;;;;24.80;14.25;;;;;;;12.96;100.00;101706.28;5132651;27;20186;-78
2023/05/05 05:59:40;;;;;;;24.30;13.90;;;;;;;13.30;100.00;101715.84;5132547;27;20155;-78
2023/05/05 06:02:06;;;;;;;23.60;13.70;;;;;;;13.61;100.00;101699.78;5132302;27;20042;-78
2023/05/05 06:04:32;;;;;;;22.23;13.70;;;;;;;13.92;100.00;101698.69;5132413;27;20499;-78
2023/05/05 06:06:57;;;;;;;28.85;13.30;;;;;;;14.20;100.00;101708.69;5132845;27;20385;-78
2023/05/05 06:09:23;;;;;;;20.58;11.95;;;;;;;14.43;100.00;101709.22;5133159;27;20332;-79
2023/05/05 06:11:49;;;;;;;28.20;12.52;;;;;;;14.54;100.00;101705.53;5133008;27;20023;-78
2023/05/05 06:14:15;;;;;;;18.38;11.93;;;;;;;14.64;100.00;101717.09;5132863;27;20075;-76
2023/05/05 06:16:41;;;;;;;16.60;11.80;;;;;;;14.75;100.00;101719.63;5132894;27;20047;-77
2023/05/05 06:19:08;;;;;;;23.38;11.73;;;;;;;14.90;100.00;101711.09;5132145;27;20428;-77
2023/05/05 06:21:34;;;;;;;20.50;10.75;;;;;;;15.08;100.00;101720.09;5131137;27;20039;-77
2023/05/05 06:24:00;;;;;;;18.38;11.20;;;;;;;15.20;100.00;101725.22;5132509;27;20076;-76
2023/05/05 06:26:25;;;;;;;20.17;11.23;;;;;;;15.26;100.00;101725.50;5132207;27;20035;-77
2023/05/05 06:28:50;;;;;;;13.35;10.07;;;;;;;15.38;100.00;101715.44;5114265;27;20115;-78
2023/05/05 06:31:16;;;;;;;16.50;11.00;;;;;;;15.56;100.00;101720.00;5130908;27;20045;-76
2023/05/05 06:33:41;;;;;;;27.70;14.48;;;;;;;15.79;100.00;101720.44;5113574;27;20027;-77
2023/05/05 06:36:07;;;;;;;15.93;10.30;;;;;;;15.98;100.00;101724.81;5132269;27;20035;-77
2023/05/05 06:38:32;;;;;;;19.55;10.18;;;;;;;16.09;100.00;101718.38;5131978;27;20096;-78
2023/05/05 06:40:58;;;;;;;19.85;8.85;;;;;;;16.12;100.00;101721.59;5132150;27;20049;-78
2023/05/05 06:43:23;;;;;;;18.83;8.70;;;;;;;16.14;100.00;101724.13;5131667;27;20511;-76
2023/05/05 06:45:49;;;;;;;17.65;9.32;;;;;;;16.21;100.00;101723.34;5131973;27;20033;-75
2023/05/05 06:48:14;;;;;;;14.02;9.50;;;;;;;16.27;100.00;101731.78;5131948;27;20031;-79
2023/05/05 06:50:39;;;;;;;15.38;9.38;;;;;;;16.30;100.00;101734.16;5131519;27;20053;-77
2023/05/05 06:53:05;;;;;;;18.50;7.80;;;;;;;16.35;100.00;101739.91;5130048;27;20064;-76
2023/05/05 06:55:30;;;;;;;14.88;7.40;;;;;;;16.32;100.00;101737.53;5131754;27;20186;-79
2023/05/05 06:57:56;;;;;;;11.40;6.85;;;;;;;16.31;100.00;101735.84;5130133;27;20058;-77
2023/05/05 07:00:21;;;;;;;18.23;9.73;;;;;;;16.25;100.00;101736.47;5131451;27;20042;-78
2023/05/05 07:02:47;;;;;;;13.00;7.40;;;;;;;16.25;100.00;101731.94;5130246;27;20062;-78
2023/05/05 07:05:12;;;;;;;11.20;5.88;;;;;;;16.32;100.00;101730.31;5112895;27;20415;-78
2023/05/05 07:07:48;;;;;;;11.43;5.50;;;;;;;16.33;100.00;101723.97;5131858;27;20054;-77
2023/05/05 07:10:13;;;;;;;12.30;5.63;;;;;;;16.32;100.00;101724.94;5131748;27;20126;-81
2023/05/05 07:12:39;;;;;;;11.70;5.25;;;;;;;16.23;100.00;101715.16;5132015;27;20237;-80
2023/05/05 07:15:05;;;;;;;9.10;4.85;;;;;;;16.19;100.00;101716.44;5130443;27;20027;-79
2023/05/05 07:17:30;;;;;;;12.00;5.07;;;;;;;16.16;100.00;101714.91;5131957;27;20187;-79
2023/05/05 07:19:56;;;;;;;6.97;4.68;;;;;;;16.29;100.00;101719.91;5131682;27;20108;-77
2023/05/05 07:22:21;;;;;;;7.45;4.25;;;;;;;16.49;100.00;101725.91;5131646;27;20039;-78
2023/05/05 07:24:46;;;;;;;6.90;4.20;;;;;;;16.67;100.00;101725.03;5131543;27;20062;-80
2023/05/05 07:27:12;;;;;;;7.85;4.10;;;;;;;16.93;100.00;101733.13;5131597;28;20123;-78
2023/05/05 07:29:38;;;;;;;9.48;4.40;;;;;;;16.99;100.00;101732.50;5131595;27;20028;-78
2023/05/05 07:32:03;;;;;;;7.85;4.15;;;;;;;16.84;100.00;101726.84;5131406;27;20429;-78
2023/05/05 07:34:31;;;;;;;10.13;4.40;;;;;;;16.69;100.00;101726.56;5130851;28;20059;-78
2023/05/05 07:36:56;;;;;;;6.30;4.10;;;;;;;16.61;100.00;101729.19;5131115;28;20135;-79
2023/05/05 07:39:22;;;;;;;7.68;4.05;;;;;;;16.65;100.00;101733.25;5132285;27;20435;-78
2023/05/05 07:41:47;;;;;;;5.28;3.63;;;;;;;16.77;100.00;101735.69;5132497;27;20037;-76
2023/05/05 07:44:13;;;;;;;9.23;4.03;;;;;;;16.86;100.00;101735.56;5132522;27;20023;-77
2023/05/05 07:46:38;;;;;;;7.78;3.70;;;;;;;17.08;100.00;101746.81;5131818;28;20151;-77
2023/05/05 07:49:03;;;;;;;8.93;3.25;;;;;;;17.22;100.00;101754.28;5132391;27;20031;-77
2023/05/05 07:51:30;;;;;;;8.02;3.22;;;;;;;17.47;100.00;101749.00;5134991;27;20439;-79
2023/05/05 07:53:56;;;;;;;7.00;3.60;;;;;;;17.69;100.00;101752.97;5135427;27;20035;-79
2023/05/05 07:56:21;;;;;;;5.28;2.90;;;;;;;17.87;100.00;101741.19;5135490;27;20304;-80
2023/05/05 07:58:46;;;;;;;7.25;2.80;;;;;;;18.08;100.00;101740.78;5135548;27;20363;-80
2023/05/05 08:01:12;;;;;;;4.95;2.95;;;;;;;18.26;100.00;101743.31;5134915;27;20051;-77
2023/05/05 08:03:37;;;;;;;7.35;2.85;;;;;;;18.41;100.00;101744.31;5133455;27;20031;-77
2023/05/05 08:06:09;;;;;;;5.55;2.80;;;;;;;18.45;100.00;101745.69;5135095;27;20031;-81
2023/05/05 08:08:35;;;;;;;6.53;2.50;;;;;;;18.53;100.00;101750.22;5135399;27;20370;-80
2023/05/05 08:11:01;;;;;;;3.13;1.83;;;;;;;18.41;100.00;101755.09;5133719;27;20035;-82
2023/05/05 08:13:27;;;;;;;5.07;2.17;;;;;;;18.13;100.00;101749.19;5134782;27;20030;-78
2023/05/05 08:15:52;;;;;;;4.88;1.90;;;;;;;17.95;100.00;101755.56;5134638;27;20031;-77
2023/05/05 08:18:18;;;;;;;5.55;2.20;;;;;;;17.76;100.00;101763.91;5135465;27;20474;-78
2023/05/05 08:20:43;;;;;;;9.50;1.90;;;;;;;17.67;100.00;101762.19;5135069;27;20035;-81
2023/05/05 08:23:09;;;;;;;5.03;1.67;;;;;;;17.78;100.00;101762.72;5134392;27;20027;-76
2023/05/05 08:25:34;;;;;;;5.50;2.25;;;;;;;17.71;100.00;101769.78;5134242;27;20404;-75
2023/05/05 08:28:00;;;;;;;4.10;2.33;;;;;;;17.54;100.00;101770.72;5134459;27;20111;-77
2023/05/05 08:30:26;;;;;;;4.88;2.55;;;;;;;17.16;100.00;101775.59;5134355;27;20049;-78
2023/05/05 08:32:51;;;;;;;6.90;2.63;;;;;;;16.85;100.00;101776.03;5134516;27;20403;-80
2023/05/05 08:35:17;;;;;;;9.27;2.70;;;;;;;16.49;100.00;101786.84;5134206;27;20462;-75
2023/05/05 08:37:42;;;;;;;7.65;3.10;;;;;;;16.19;100.00;101784.41;5134453;27;20053;-84
2023/05/05 08:40:12;;;;;;;5.32;2.45;;;;;;;15.89;100.00;101792.81;5134439;27;20117;-78
2023/05/05 08:42:38;;;;;;;6.00;2.67;;;;;;;15.62;100.00;101784.59;5134164;27;20053;-80
2023/05/05 08:45:04;;;;;;;8.93;2.80;;;;;;;15.31;100.00;101781.34;5133854;27;20048;-79
2023/05/05 08:47:30;;;;;;;5.50;2.10;;;;;;;14.83;100.00;101774.31;5133715;27;20046;-78
2023/05/05 08:49:58;;;;;;;4.88;2.30;;;;;;;14.37;100.00;101761.50;5133996;27;20034;-76
2023/05/05 08:52:27;;;;;;;5.78;2.65;;;;;;;14.03;100.00;101761.94;5133649;27;20339;-79
2023/05/05 08:55:13;;;;;;;3.85;2.50;;;;;;;13.88;100.00;101772.19;5133203;27;20107;-84
2023/05/05 08:57:45;;;;;;;6.97;2.88;;;;;;;14.04;100.00;101766.28;5133959;27;20173;-77
2023/05/05 09:00:12;;;;;;;4.03;2.50;;;;;;;14.35;100.00;101771.50;5133241;27;20039;-76
2023/05/05 09:02:38;;;;;;;4.45;2.30;;;;;;;14.75;100.00;101783.06;5132955;27;20031;-78
2023/05/05 09:05:05;;;;;;;5.63;2.40;;;;;;;15.09;100.00;101787.91;5133544;27;20466;-75
2023/05/05 09:07:31;;;;;;;7.60;2.75;;;;;;;15.39;100.00;101785.97;5132200;27;20035;-76
2023/05/05 09:09:59;;;;;;;7.38;2.67;;;;;;;15.65;100.00;101780.78;5133530;27;20152;-76
2023/05/05 09:12:30;;;;;;;4.57;2.58;;;;;;;15.91;100.00;101788.13;5133456;27;20057;-78
2023/05/05 09:14:56;;;;;;;3.78;1.95;;;;;;;16.16;100.00;101783.88;5132951;27;20039;-77
2023/05/05 09:17:25;;;;;;;4.30;1.70;;;;;;;16.27;100.00;101778.28;5133551;27;20042;-77
2023/05/05 09:20:08;;;;;;;5.53;2.00;;;;;;;16.24;100.00;101783.09;5133458;27;20049;-77
2023/05/05 09:22:37;;;;;;;5.55;1.70;;;;;;;16.24;100.00;101785.78;5115343;27;20358;-80
2023/05/05 09:25:04;;;;;;;6.07;1.85;;;;;;;16.20;100.00;101793.31;5131765;27;20126;-80
2023/05/05 09:27:34;;;;;;;8.65;2.30;;;;;;;16.24;100.00;101789.31;5133144;27;20111;-80
2023/05/05 09:29:59;;;;;;;6.05;1.80;;;;;;;16.30;100.00;101791.41;5133138;27;20027;-78
2023/05/05 09:32:26;;;;;;;3.03;1.83;;;;;;;16.32;100.00;101788.56;5132931;27;20080;-78
2023/05/05 09:35:00;;;;;;;3.42;1.70;;;;;;;16.35;100.00;101797.16;5133325;27;20031;-80
2023/05/05 09:37:29;;;;;;;5.22;2.10;;;;;;;16.38;100.00;101801.38;5132440;27;20042;-79
2023/05/05 09:39:57;;;;;;;6.70;2.20;;;;;;;16.38;100.00;101804.91;5130928;27;20176;-73
2023/05/05 09:42:22;;;;;;;4.50;2.50;;;;;;;16.44;100.00;101800.75;5132521;27;20418;-79
2023/05/05 09:44:48;;;;;;;9.15;2.80;;;;;;;16.53;100.00;101801.66;5132606;27;20114;-80
2023/05/05 09:47:13;;;;;;;4.80;2.10;;;;;;;16.66;100.00;101802.13;5132683;27;20049;-78
2023/05/05 09:49:39;;;;;;;3.60;1.92;;;;;;;16.76;100.00;101802.00;5132141;27;20070;-80
2023/05/05 09:52:13;;;;;;;5.20;2.20;;;;;;;16.86;100.00;101800.06;5132286;27;20126;-80
2023/05/05 09:54:39;;;;;;;4.97;2.10;;;;;;;16.97;100.00;101803.53;5132336;27;20155;-78
2023/05/05 09:57:05;;;;;;;7.50;2.03;;;;;;;16.94;100.00;101799.31;5132593;27;20133;-80
2023/05/05 09:59:56;;;;;;;6.28;1.90;;;;;;;16.96;100.00;101797.31;5132079;27;20087;-79
2023/05/05 10:02:30;;;;;;;4.88;2.05;;;;;;;16.99;100.00;101788.94;5130798;27;20173;-79
2023/05/05 10:05:06;;;;;;;6.38;2.00;;;;;;;17.16;100.00;101789.88;5132078;27;20466;-80
2023/05/05 10:07:31;;;;;;;5.45;1.98;;;;;;;17.19;100.00;101783.34;5132368;27;20031;-82
2023/05/05 10:09:57;;;;;;;5.70;2.30;;;;;;;17.21;100.00;101784.88;5132517;27;20043;-81
2023/05/05 10:12:24;;;;;;;4.70;1.75;;;;;;;17.28;100.00;101780.53;5130427;27;20465;-81
2023/05/05 10:14:54;;;;;;;4.38;1.80;;;;;;;17.28;100.00;101780.53;5131983;27;20452;-82
2023/05/05 10:17:21;;;;;;;10.60;2.50;;;;;;;17.38;100.00;101784.97;5133007;27;20035;-81
2023/05/05 10:19:51;;;;;;;7.75;2.25;;;;;;;17.38;100.00;101784.97;5132455;27;20133;-82
2023/05/05 10:22:21;;;;;;;4.22;1.70;;;;;;;17.35;100.00;101794.19;5132485;27;20046;-83
2023/05/05 10:24:58;;;;;;;3.92;1.70;;;;;;;17.30;100.00;101791.13;5132071;27;20082;-82
2023/05/05 10:27:27;;;;;;;4.47;1.83;;;;;;;17.27;100.00;101786.06;5132445;27;20086;-79
2023/05/05 10:30:04;;;;;;;11.40;1.90;;;;;;;17.32;100.00;101783.75;5132065;27;20451;-81
2023/05/05 10:32:35;;;;;;;6.40;2.10;;;;;;;17.49;100.00;101784.66;5132309;27;20027;-80
2023/05/05 10:35:02;;;;;;;;;;;;;;;17.60;100.00;101776.31;5132691;27;20059;-82
2023/05/05 10:37:29;;;;;;;5.25;1.73;;;;;;;17.59;100.00;101777.31;5131595;27;20339;-81
2023/05/05 10:39:58;;;;;;;3.08;1.70;;;;;;;17.52;100.00;101778.13;5131447;27;20091;-82
2023/05/05 10:42:24;;;;;;;7.65;2.00;;;;;;;17.32;100.00;101773.00;5131593;27;20107;-81
2023/05/05 10:44:50;;;;;;;3.67;1.63;;;;;;;17.19;100.00;101781.47;5131858;27;20061;-81
2023/05/05 10:47:17;;;;;;;7.75;1.95;;;;;;;17.07;100.00;101772.00;5130142;27;20038;-80
2023/05/05 10:49:53;;;;;;;7.22;1.58;;;;;;;17.02;100.00;101771.66;5131871;27;20027;-80
2023/05/05 10:52:55;;;;;;;4.80;1.90;;;;;;;16.91;100.00;101784.38;5131564;27;20051;-79
2023/05/05 10:55:29;;;;;;;4.30;1.70;;;;;;;16.89;100.00;101775.59;5131338;27;20122;-80
2023/05/05 10:57:54;;;;;;;6.10;1.77;;;;;;;16.84;100.00;101772.53;5131265;27;20039;-80
2023/05/05 11:00:38;;;;;;;4.93;1.92;;;;;;;16.86;100.00;101767.00;5131286;27;20038;-80
2023/05/05 11:03:16;;;;;;;5.93;2.08;;;;;;;16.85;100.00;101768.81;5131243;27;20537;-79
2023/05/05 11:06:03;;;;;;;6.35;2.22;;;;;;;16.86;100.00;101767.81;5130888;27;20033;-79
2023/05/05 11:08:41;;;;;;;6.72;2.53;;;;;;;16.79;100.00;101761.38;5131302;27;20039;-77
2023/05/05 11:11:10;;;;;;;5.30;2.08;;;;;;;16.73;100.00;101764.69;5131081;27;20156;-79
2023/05/05 11:13:38;;;;;;;4.50;2.25;;;;;;;16.67;100.00;101754.59;5131470;27;20031;-78
2023/05/05 11:16:04;;;;;;;8.35;2.63;;;;;;;16.51;100.00;101755.28;5129860;27;20111;-79